Time;durP1;ratioP1;P1;durP2;ratioP2;P2;SDS_P1;SDS_P2;PMS_P1;PMS_P2;Temp;Humidity;BMP_temperature;BMP_pressure;BME280_temperature;BME280_humidity;BME280_pressure;Samples;Min_cycle;Max_cycle;Signal;HPM_P1;HPM_P2
2021/09/06 00:00:57;;;;;;;22.92;20.50;;;19.00;70.50;;;;;;5080039;28;20044;-78
2021/09/06 00:03:22;;;;;;;23.05;20.80;;;19.00;70.60;;;;;;5062214;28;20169;-79
2021/09/06 00:05:48;;;;;;;21.83;19.63;;;18.90;71.00;;;;;;5064938;28;20570;-80
2021/09/06 00:08:14;;;;;;;22.48;20.27;;;18.90;70.50;;;;;;5064947;28;20463;-79
2021/09/06 00:10:43;;;;;;;20.83;18.70;;;18.90;70.60;;;;;;5047786;28;20050;-79
2021/09/06 00:13:14;;;;;;;22.63;19.77;;;18.90;70.60;;;;;;5063795;28;20059;-79
2021/09/06 00:15:41;;;;;;;22.17;19.77;;;18.90;70.60;;;;;;5063204;28;20518;-78
2021/09/06 00:18:08;;;;;;;22.15;19.90;;;18.80;70.50;;;;;;5075302;28;20032;-79
2021/09/06 00:20:36;;;;;;;21.05;18.98;;;18.90;70.70;;;;;;5084323;28;20138;-80
2021/09/06 00:23:03;;;;;;;22.13;19.88;;;18.80;70.60;;;;;;5081787;28;20131;-78
2021/09/06 00:25:30;;;;;;;23.20;20.80;;;18.80;71.10;;;;;;5065098;28;20509;-79
2021/09/06 00:27:56;;;;;;;22.52;20.05;;;18.80;70.60;;;;;;5064593;28;20507;-80
2021/09/06 00:30:22;;;;;;;21.58;19.27;;;18.80;70.70;;;;;;5047209;28;20036;-79
2021/09/06 00:32:47;;;;;;;21.80;19.50;;;18.80;70.70;;;;;;5065801;28;20029;-78
2021/09/06 00:35:13;;;;;;;21.15;19.05;;;18.70;70.60;;;;;;5084384;28;20404;-79
2021/09/06 00:37:40;;;;;;;21.75;19.48;;;18.70;70.60;;;;;;5083395;28;20065;-79
2021/09/06 00:40:06;;;;;;;21.88;19.52;;;18.70;70.60;;;;;;5047681;28;20036;-79
2021/09/06 00:42:32;;;;;;;22.13;19.67;;;18.60;70.50;;;;;;5046693;28;20044;-80
2021/09/06 00:44:58;;;;;;;22.23;19.85;;;18.60;70.50;;;;;;5084075;28;20067;-79
2021/09/06 00:47:24;;;;;;;22.17;19.98;;;18.60;70.60;;;;;;5083214;28;20024;-80
2021/09/06 00:49:50;;;;;;;21.67;19.48;;;18.60;70.60;;;;;;5067132;28;20086;-80
2021/09/06 00:52:16;;;;;;;22.30;20.17;;;18.60;70.60;;;;;;5063753;28;20119;-79
2021/09/06 00:54:43;;;;;;;21.45;19.25;;;18.60;70.60;;;;;;5062839;28;20128;-80
2021/09/06 00:57:09;;;;;;;21.73;19.52;;;18.60;70.70;;;;;;5063216;28;20036;-80
2021/09/06 00:59:37;;;;;;;21.63;19.42;;;18.50;70.60;;;;;;5047229;28;20039;-79
2021/09/06 01:02:03;;;;;;;21.05;18.92;;;18.50;70.60;;;;;;5079335;28;20390;-79
2021/09/06 01:04:29;;;;;;;22.60;20.20;;;18.50;70.70;;;;;;5083484;28;20039;-79
2021/09/06 01:07:16;;;;;;;20.83;18.77;;;18.50;70.70;;;;;;5082957;28;20035;-80
2021/09/06 01:10:11;;;;;;;21.77;19.52;;;18.40;71.10;;;;;;5059803;28;20040;-78
2021/09/06 01:12:54;;;;;;;21.25;19.15;;;18.40;70.60;;;;;;5063635;28;20063;-79
2021/09/06 01:15:21;;;;;;;21.90;18.75;;;18.40;70.60;;;;;;5048641;28;20490;-80
2021/09/06 01:17:46;;;;;;;22.65;20.00;;;18.40;70.60;;;;;;5076543;28;20036;-80
2021/09/06 01:20:13;;;;;;;23.33;20.88;;;18.30;70.50;;;;;;5068928;28;20029;-78
2021/09/06 01:22:46;;;;;;;23.58;19.15;;;18.40;70.80;;;;;;5068106;28;20040;-79
2021/09/06 01:25:17;;;;;;;23.05;20.75;;;18.30;70.60;;;;;;5087514;28;20317;-79
2021/09/06 01:27:46;;;;;;;21.20;19.02;;;18.30;70.70;;;;;;5087458;28;20028;-80
2021/09/06 01:30:15;;;;;;;23.38;20.23;;;18.30;70.70;;;;;;5051459;28;20031;-80
2021/09/06 01:32:42;;;;;;;23.75;21.25;;;18.30;70.70;;;;;;5067971;28;20056;-79
2021/09/06 01:35:09;;;;;;;21.10;18.92;;;18.20;70.50;;;;;;5067667;28;20052;-80
2021/09/06 01:37:38;;;;;;;21.00;18.80;;;18.20;70.60;;;;;;5068316;28;20051;-79
2021/09/06 01:40:05;;;;;;;22.73;20.27;;;18.20;70.60;;;;;;5068620;28;20537;-79
2021/09/06 01:42:31;;;;;;;21.70;19.52;;;18.20;70.70;;;;;;5068092;28;20036;-79
2021/09/06 01:45:03;;;;;;;23.58;20.42;;;18.20;70.70;;;;;;5068318;28;20033;-80
2021/09/06 01:47:31;;;;;;;21.08;18.95;;;18.20;70.70;;;;;;5069211;28;20060;-80
2021/09/06 01:49:59;;;;;;;21.45;19.05;;;18.20;70.80;;;;;;5071299;28;20035;-79
2021/09/06 01:52:30;;;;;;;21.77;19.08;;;18.10;70.60;;;;;;5055109;28;20123;-79
2021/09/06 01:55:01;;;;;;;24.60;20.35;;;18.10;70.70;;;;;;5054180;28;20397;-79
2021/09/06 01:57:27;;;;;;;23.08;20.67;;;18.10;70.70;;;;;;5059799;28;20024;-77
2021/09/06 01:59:54;;;;;;;24.13;19.20;;;18.10;70.70;;;;;;5052438;28;20037;-78
2021/09/06 02:02:23;;;;;;;20.13;18.15;;;18.00;70.50;;;;;;5080649;28;20248;-80
2021/09/06 02:04:49;;;;;;;20.13;18.13;;;18.10;70.80;;;;;;5093462;28;20512;-80
2021/09/06 02:07:16;;;;;;;19.40;17.60;;;18.00;70.60;;;;;;5074190;28;20043;-78
2021/09/06 02:09:42;;;;;;;22.35;19.77;;;18.00;70.70;;;;;;5091539;28;20043;-80
2021/09/06 02:12:12;;;;;;;21.45;19.23;;;18.00;70.70;;;;;;5091314;28;20020;-78
2021/09/06 02:14:42;;;;;;;20.58;18.48;;;17.90;70.60;;;;;;5075277;28;20119;-79
2021/09/06 02:17:10;;;;;;;20.30;17.85;;;17.90;70.60;;;;;;5090470;28;20024;-79
2021/09/06 02:19:37;;;;;;;20.67;18.48;;;17.90;70.60;;;;;;5090595;28;20031;-78
2021/09/06 02:22:04;;;;;;;21.27;19.17;;;17.90;70.70;;;;;;5090401;28;20384;-77
2021/09/06 02:24:38;;;;;;;21.63;18.25;;;17.90;70.70;;;;;;5075242;28;20197;-78
2021/09/06 02:27:16;;;;;;;19.58;17.48;;;17.90;70.70;;;;;;5090377;28;20475;-79
2021/09/06 02:29:43;;;;;;;19.38;17.35;;;17.80;70.60;;;;;;5074234;28;20028;-79
2021/09/06 02:32:16;;;;;;;21.60;19.23;;;17.80;70.60;;;;;;5090522;28;20198;-78
2021/09/06 02:35:01;;;;;;;19.83;17.85;;;17.80;70.60;;;;;;5091358;28;20097;-78
2021/09/06 02:37:30;;;;;;;20.60;18.58;;;17.80;70.60;;;;;;5073607;28;20031;-78
2021/09/06 02:39:56;;;;;;;20.95;18.75;;;17.80;70.70;;;;;;5090398;28;20030;-77
2021/09/06 02:42:23;;;;;;;20.17;18.05;;;17.70;70.50;;;;;;5090169;28;20036;-78
2021/09/06 02:44:52;;;;;;;19.33;17.40;;;17.70;70.60;;;;;;5073965;28;20073;-77
2021/09/06 02:47:18;;;;;;;20.48;18.40;;;17.70;70.60;;;;;;5089931;28;20040;-77
2021/09/06 02:49:45;;;;;;;19.33;17.50;;;17.70;70.70;;;;;;5090532;28;20034;-77
2021/09/06 02:52:18;;;;;;;19.52;17.42;;;17.70;70.70;;;;;;5090416;28;20427;-77
2021/09/06 02:54:44;;;;;;;21.15;18.40;;;17.70;70.70;;;;;;5073210;28;20540;-78
2021/09/06 02:57:11;;;;;;;20.70;18.65;;;17.60;70.50;;;;;;5073106;28;20039;-78
2021/09/06 02:59:37;;;;;;;19.88;17.45;;;17.60;70.50;;;;;;5091713;28;20020;-79
2021/09/06 03:02:04;;;;;;;20.65;18.42;;;17.60;70.50;;;;;;5089535;28;20067;-79
2021/09/06 03:04:31;;;;;;;18.70;16.80;;;17.60;70.60;;;;;;5073149;28;20039;-79
2021/09/06 03:06:58;;;;;;;18.15;16.45;;;17.60;70.60;;;;;;5072889;28;20035;-80
2021/09/06 03:09:24;;;;;;;19.10;17.17;;;17.60;70.60;;;;;;5073053;28;20028;-79
2021/09/06 03:11:52;;;;;;;20.73;18.60;;;17.50;70.50;;;;;;5073229;28;20035;-81
2021/09/06 03:14:19;;;;;;;18.80;16.13;;;17.50;70.50;;;;;;5089509;28;20505;-80
2021/09/06 03:16:50;;;;;;;17.30;15.60;;;17.50;70.60;;;;;;5073377;28;20123;-79
2021/09/06 03:19:17;;;;;;;18.73;16.90;;;17.40;70.40;;;;;;5089739;28;20031;-78
2021/09/06 03:21:49;;;;;;;19.15;17.10;;;17.50;70.70;;;;;;5073617;28;20522;-79
2021/09/06 03:24:18;;;;;;;21.73;16.77;;;17.40;70.60;;;;;;5089009;28;20048;-80
2021/09/06 03:26:44;;;;;;;18.83;16.63;;;17.40;70.60;;;;;;5089522;28;20034;-79
2021/09/06 03:29:11;;;;;;;17.88;16.20;;;17.40;70.60;;;;;;5072250;28;20024;-80
2021/09/06 03:31:37;;;;;;;16.88;15.20;;;17.40;70.70;;;;;;5089406;28;20471;-81
2021/09/06 03:34:04;;;;;;;17.67;15.88;;;17.30;70.50;;;;;;5072299;28;20101;-78
2021/09/06 03:36:30;;;;;;;18.10;16.30;;;17.30;71.10;;;;;;5071771;28;20028;-80
2021/09/06 03:38:57;;;;;;;17.65;15.95;;;17.30;70.60;;;;;;5088534;28;20118;-80
2021/09/06 03:41:27;;;;;;;18.85;16.98;;;17.30;70.70;;;;;;5072547;28;20036;-80
2021/09/06 03:43:53;;;;;;;17.90;16.00;;;17.30;70.70;;;;;;5090737;28;20138;-79
2021/09/06 03:46:19;;;;;;;17.60;15.77;;;17.30;70.70;;;;;;5088973;28;20020;-79
2021/09/06 03:48:48;;;;;;;17.48;15.70;;;17.30;70.70;;;;;;5089027;28;20042;-79
2021/09/06 03:51:14;;;;;;;17.30;15.52;;;17.30;70.80;;;;;;5088347;28;20111;-80
2021/09/06 03:53:40;;;;;;;16.92;15.18;;;17.30;70.80;;;;;;5071895;28;20024;-80
2021/09/06 03:56:06;;;;;;;19.25;17.40;;;17.30;70.80;;;;;;5088414;28;20032;-79
2021/09/06 03:58:38;;;;;;;21.25;17.30;;;17.30;70.80;;;;;;5072932;28;20027;-80
2021/09/06 04:01:04;;;;;;;19.02;16.40;;;17.30;70.90;;;;;;5088445;28;20039;-79
2021/09/06 04:03:31;;;;;;;19.13;17.20;;;17.20;70.70;;;;;;5089130;28;20051;-81
2021/09/06 04:05:59;;;;;;;19.13;17.15;;;17.20;70.70;;;;;;5088618;28;20026;-78
2021/09/06 04:08:25;;;;;;;17.92;16.13;;;17.20;70.80;;;;;;5088425;28;20119;-80
2021/09/06 04:10:52;;;;;;;20.27;18.17;;;17.20;70.80;;;;;;5088389;28;20032;-79
2021/09/06 04:13:22;;;;;;;20.30;18.15;;;17.20;70.80;;;;;;5088887;28;20080;-79
2021/09/06 04:15:51;;;;;;;20.38;18.27;;;17.20;70.80;;;;;;5088497;28;20043;-80
2021/09/06 04:18:19;;;;;;;21.33;19.00;;;17.20;70.80;;;;;;5072201;28;20042;-78
2021/09/06 04:20:45;;;;;;;22.35;18.67;;;17.20;70.80;;;;;;5072213;28;20063;-78
2021/09/06 04:23:12;;;;;;;20.80;17.98;;;17.20;70.90;;;;;;5087916;28;20043;-78
2021/09/06 04:25:38;;;;;;;19.52;17.55;;;17.20;70.90;;;;;;5088625;28;20035;-77
2021/09/06 04:28:04;;;;;;;21.80;18.75;;;17.20;70.90;;;;;;5088630;28;20036;-78
2021/09/06 04:30:30;;;;;;;21.23;18.38;;;17.20;71.40;;;;;;5088548;28;20150;-77
2021/09/06 04:32:57;;;;;;;21.67;19.38;;;17.20;70.90;;;;;;5072115;28;20093;-79
2021/09/06 04:35:23;;;;;;;23.40;18.38;;;17.10;70.70;;;;;;5088410;28;20054;-79
2021/09/06 04:37:50;;;;;;;22.02;19.05;;;17.20;70.90;;;;;;5071043;28;20054;-78
2021/09/06 04:40:20;;;;;;;19.85;17.55;;;17.10;70.80;;;;;;5071832;28;20051;-77
2021/09/06 04:42:50;;;;;;;21.50;19.20;;;17.20;71.00;;;;;;5072141;28;20042;-79
2021/09/06 04:45:17;;;;;;;20.92;18.75;;;17.10;70.80;;;;;;5088466;28;20499;-79
2021/09/06 04:47:44;;;;;;;22.10;19.75;;;17.20;71.00;;;;;;5075223;28;20043;-79
2021/09/06 04:50:11;;;;;;;21.55;18.65;;;17.10;70.80;;;;;;5047709;28;20423;-79
2021/09/06 04:52:38;;;;;;;21.85;19.70;;;17.10;70.90;;;;;;5049554;28;20518;-79
2021/09/06 04:55:09;;;;;;;21.63;19.35;;;17.10;70.90;;;;;;5049669;28;20304;-78
2021/09/06 04:57:36;;;;;;;21.50;19.25;;;17.10;70.90;;;;;;5052530;28;20036;-79
2021/09/06 05:00:04;;;;;;;22.90;20.50;;;17.10;70.90;;;;;;5052662;28;20115;-79
2021/09/06 05:02:30;;;;;;;21.75;19.17;;;17.10;70.90;;;;;;5082139;28;20585;-78
2021/09/06 05:04:57;;;;;;;22.52;19.05;;;17.10;70.90;;;;;;5067129;28;20075;-79
2021/09/06 05:07:23;;;;;;;21.58;19.48;;;17.10;70.90;;;;;;5050739;28;20035;-79
2021/09/06 05:09:49;;;;;;;24.25;20.50;;;17.10;71.00;;;;;;5066439;28;20029;-80
2021/09/06 05:12:16;;;;;;;22.75;20.15;;;17.10;71.00;;;;;;5067295;28;20494;-79
2021/09/06 05:14:42;;;;;;;22.48;20.05;;;17.10;71.00;;;;;;5066733;28;20024;-78
2021/09/06 05:17:09;;;;;;;21.55;19.42;;;17.10;71.00;;;;;;5053403;28;20024;-78
2021/09/06 05:19:37;;;;;;;23.58;21.00;;;17.10;71.00;;;;;;5078954;28;20039;-80
2021/09/06 05:22:04;;;;;;;20.98;18.88;;;17.10;71.00;;;;;;5085745;28;20872;-79
2021/09/06 05:24:32;;;;;;;22.75;20.33;;;17.10;71.00;;;;;;5073126;28;20036;-77
2021/09/06 05:26:58;;;;;;;21.10;18.95;;;17.10;71.00;;;;;;5075988;28;20036;-78
2021/09/06 05:29:24;;;;;;;22.05;19.85;;;17.10;71.00;;;;;;5071849;28;20430;-78
2021/09/06 05:31:51;;;;;;;22.23;19.92;;;17.10;71.10;;;;;;5067527;28;20066;-78
2021/09/06 05:34:17;;;;;;;23.27;20.73;;;17.10;71.10;;;;;;5068204;28;20049;-78
2021/09/06 05:36:43;;;;;;;22.08;19.83;;;17.10;71.10;;;;;;5051387;28;20056;-78
2021/09/06 05:39:09;;;;;;;23.00;20.70;;;17.00;70.90;;;;;;5084705;28;20028;-78
2021/09/06 05:41:36;;;;;;;22.83;20.33;;;17.00;70.90;;;;;;5089316;28;20172;-79
2021/09/06 05:44:08;;;;;;;22.23;20.10;;;17.00;70.90;;;;;;5067921;28;20451;-78
2021/09/06 05:46:35;;;;;;;20.02;18.10;;;17.10;71.20;;;;;;5050939;28;20132;-80
2021/09/06 05:49:03;;;;;;;22.95;20.45;;;17.10;71.20;;;;;;5069437;28;20508;-79
2021/09/06 05:51:32;;;;;;;22.27;19.70;;;17.00;71.50;;;;;;5087112;28;20105;-80
2021/09/06 05:54:18;;;;;;;22.88;19.85;;;17.00;70.90;;;;;;5060000;28;20041;-78
2021/09/06 05:56:44;;;;;;;24.30;21.77;;;17.00;71.00;;;;;;5045823;28;20403;-76
2021/09/06 05:59:10;;;;;;;22.88;20.42;;;17.00;71.00;;;;;;5082631;28;20024;-76
2021/09/06 06:01:38;;;;;;;22.73;20.58;;;17.00;71.00;;;;;;5085807;28;20048;-75
2021/09/06 06:04:04;;;;;;;22.40;20.02;;;17.00;71.00;;;;;;5066575;28;20077;-76
2021/09/06 06:06:35;;;;;;;24.23;21.58;;;17.10;71.20;;;;;;5066086;28;20032;-76
2021/09/06 06:09:03;;;;;;;24.15;21.70;;;17.10;71.20;;;;;;5049031;28;20051;-75
2021/09/06 06:11:30;;;;;;;23.40;21.02;;;17.10;71.20;;;;;;5069217;28;20258;-76
2021/09/06 06:13:56;;;;;;;30.58;24.63;;;17.10;71.20;;;;;;5059789;28;20035;-80
2021/09/06 06:16:22;;;;;;;29.17;25.60;;;17.10;71.20;;;;;;5060670;28;20057;-76
2021/09/06 06:18:51;;;;;;;33.45;29.73;;;17.10;71.30;;;;;;5082032;28;20170;-76
2021/09/06 06:21:20;;;;;;;36.92;31.45;;;17.20;71.70;;;;;;5066981;28;20050;-76
2021/09/06 06:24:03;;;;;;;39.23;31.07;;;17.20;71.90;;;;;;5084944;28;20060;-76
2021/09/06 06:26:48;;;;;;;40.15;33.47;;;17.20;71.90;;;;;;5084966;28;20028;-75
2021/09/06 06:29:14;;;;;;;41.75;34.97;;;17.20;72.00;;;;;;5050284;28;20039;-76
2021/09/06 06:31:42;;;;;;;43.92;33.63;;;17.20;72.10;;;;;;5065050;28;20040;-76
2021/09/06 06:34:11;;;;;;;44.35;34.95;;;17.30;72.50;;;;;;5048055;28;20056;-76
2021/09/06 06:36:39;;;;;;;45.83;34.28;;;17.30;72.50;;;;;;5064662;28;20039;-76
2021/09/06 06:39:07;;;;;;;41.90;34.92;;;17.30;72.60;;;;;;5047472;28;20484;-76
2021/09/06 06:41:36;;;;;;;44.67;35.17;;;17.30;72.70;;;;;;5048561;28;20032;-76
2021/09/06 06:44:05;;;;;;;42.90;35.15;;;17.30;72.70;;;;;;5063592;28;20127;-76
2021/09/06 06:46:33;;;;;;;47.65;36.63;;;17.30;72.80;;;;;;5058262;28;20073;-74
2021/09/06 06:48:59;;;;;;;45.28;34.83;;;17.40;73.20;;;;;;5067308;28;20061;-75
2021/09/06 06:51:30;;;;;;;47.38;34.72;;;17.40;73.00;;;;;;5084122;28;20182;-75
2021/09/06 06:53:56;;;;;;;48.33;37.38;;;17.40;73.10;;;;;;5084388;28;20035;-75
2021/09/06 06:56:27;;;;;;;47.10;37.60;;;17.50;73.30;;;;;;5055348;28;20029;-74
2021/09/06 06:58:59;;;;;;;52.47;37.53;;;17.50;73.40;;;;;;5069278;28;20178;-75
2021/09/06 07:01:25;;;;;;;47.22;36.53;;;17.60;73.60;;;;;;5057819;28;20055;-77
2021/09/06 07:03:52;;;;;;;47.70;37.10;;;17.60;73.60;;;;;;5058426;28;20025;-76
2021/09/06 07:06:18;;;;;;;47.50;36.42;;;17.60;73.70;;;;;;5060578;28;20033;-76
2021/09/06 07:08:44;;;;;;;51.85;37.30;;;17.70;73.80;;;;;;5056085;28;20039;-75
2021/09/06 07:11:11;;;;;;;44.97;37.63;;;17.70;73.90;;;;;;5047190;28;20028;-75
2021/09/06 07:13:38;;;;;;;45.78;36.63;;;17.80;74.20;;;;;;5046667;28;20403;-76
2021/09/06 07:16:05;;;;;;;47.17;36.17;;;17.80;74.20;;;;;;5063958;28;20032;-78
2021/09/06 07:18:31;;;;;;;46.70;37.33;;;17.90;74.30;;;;;;5069235;28;20086;-76
2021/09/06 07:20:57;;;;;;;43.65;36.53;;;17.90;74.30;;;;;;5046996;28;20381;-78
2021/09/06 07:23:27;;;;;;;47.72;38.05;;;17.90;74.30;;;;;;5063496;28;20396;-77
2021/09/06 07:25:54;;;;;;;46.67;37.47;;;18.00;74.50;;;;;;5063355;28;20036;-76
2021/09/06 07:28:20;;;;;;;45.45;36.85;;;18.00;74.50;;;;;;5063437;28;20032;-76
2021/09/06 07:30:47;;;;;;;45.03;37.95;;;18.10;74.60;;;;;;5063927;28;20031;-75
2021/09/06 07:33:13;;;;;;;41.67;37.17;;;18.10;74.60;;;;;;5046618;28;20029;-78
2021/09/06 07:35:39;;;;;;;42.42;37.72;;;18.10;74.60;;;;;;5063422;28;20028;-74
2021/09/06 07:38:05;;;;;;;43.72;38.95;;;18.20;74.80;;;;;;5053028;28;20028;-79
2021/09/06 07:40:34;;;;;;;46.40;40.17;;;18.20;74.90;;;;;;5066989;28;20104;-80
2021/09/06 07:43:00;;;;;;;45.67;40.50;;;18.30;75.00;;;;;;5073553;28;20044;-75
2021/09/06 07:45:27;;;;;;;46.10;40.65;;;18.30;75.10;;;;;;5061765;28;20090;-76
2021/09/06 07:47:55;;;;;;;46.03;39.25;;;18.40;75.30;;;;;;5040076;28;20569;-79
2021/09/06 07:50:41;;;;;;;44.85;39.80;;;18.50;75.40;;;;;;5069376;28;20020;-76
2021/09/06 07:53:08;;;;;;;47.60;41.55;;;18.60;75.60;;;;;;5072288;28;20131;-78
2021/09/06 07:55:34;;;;;;;45.15;40.35;;;18.70;75.80;;;;;;5046389;28;20029;-79
2021/09/06 07:58:00;;;;;;;47.60;42.50;;;18.70;75.80;;;;;;5069356;28;20490;-77
2021/09/06 08:00:28;;;;;;;48.22;42.03;;;18.80;76.00;;;;;;5066732;28;20501;-76
2021/09/06 08:02:54;;;;;;;45.40;40.50;;;18.90;76.10;;;;;;5057507;28;20075;-76
2021/09/06 08:05:30;;;;;;;45.20;40.42;;;18.90;76.10;;;;;;5046957;28;20032;-75
2021/09/06 08:08:01;;;;;;;46.38;41.45;;;19.00;76.40;;;;;;5068721;28;20032;-80
2021/09/06 08:10:28;;;;;;;48.63;43.08;;;19.10;76.60;;;;;;5083181;28;20122;-76
2021/09/06 08:12:55;;;;;;;45.47;40.42;;;19.20;76.90;;;;;;5082734;28;20040;-78
2021/09/06 08:15:25;;;;;;;48.17;43.15;;;19.30;77.10;;;;;;5083097;28;20521;-78
2021/09/06 08:17:52;;;;;;;48.38;43.17;;;19.40;77.30;;;;;;5078870;28;20067;-77
2021/09/06 08:20:18;;;;;;;51.38;45.92;;;19.50;77.50;;;;;;5047447;28;20097;-76
2021/09/06 08:22:46;;;;;;;47.38;42.50;;;19.60;77.60;;;;;;5062611;28;20036;-80
2021/09/06 08:25:13;;;;;;;48.13;43.13;;;19.70;77.80;;;;;;5070069;28;20056;-76
2021/09/06 08:27:40;;;;;;;46.25;41.45;;;19.80;78.00;;;;;;5071067;28;20043;-76
2021/09/06 08:30:08;;;;;;;47.53;41.17;;;19.90;78.10;;;;;;5073649;28;20185;-78
2021/09/06 08:32:35;;;;;;;50.33;43.85;;;20.00;78.20;;;;;;5085174;28;20067;-77
2021/09/06 08:35:02;;;;;;;51.60;45.90;;;20.10;78.20;;;;;;5069330;28;20091;-77
2021/09/06 08:37:28;;;;;;;52.80;46.95;;;20.30;78.50;;;;;;5052423;28;20264;-75
2021/09/06 08:39:54;;;;;;;50.92;45.83;;;20.40;78.70;;;;;;5044719;28;20025;-77
2021/09/06 08:42:20;;;;;;;50.97;45.70;;;20.40;78.70;;;;;;5052707;28;20460;-77
2021/09/06 08:44:47;;;;;;;50.75;45.33;;;20.50;78.80;;;;;;5069108;28;20082;-79
2021/09/06 08:47:14;;;;;;;52.17;47.03;;;20.60;78.90;;;;;;5073112;28;20039;-77
2021/09/06 08:49:42;;;;;;;48.92;43.80;;;20.70;79.10;;;;;;5069479;28;20074;-76
2021/09/06 08:52:08;;;;;;;49.90;44.97;;;20.80;79.20;;;;;;5052182;28;20094;-76
2021/09/06 08:54:34;;;;;;;51.33;45.63;;;20.80;79.10;;;;;;5068656;28;20024;-75
2021/09/06 08:57:00;;;;;;;52.05;45.60;;;20.80;79.10;;;;;;5074687;28;20044;-73
2021/09/06 08:59:26;;;;;;;50.63;45.25;;;20.90;79.20;;;;;;5094618;28;20042;-75
2021/09/06 09:02:06;;;;;;;48.50;43.30;;;20.90;79.10;;;;;;5090950;28;20509;-76
2021/09/06 09:05:07;;;;;;;50.80;45.45;;;20.90;79.10;;;;;;5056135;28;20029;-76
2021/09/06 09:08:00;;;;;;;47.95;42.92;;;21.00;79.20;;;;;;5070368;28;20525;-77
2021/09/06 09:10:50;;;;;;;42.33;37.90;;;21.10;79.10;;;;;;5056664;28;20070;-75
2021/09/06 09:13:48;;;;;;;47.15;42.20;;;21.20;79.10;;;;;;5045949;28;20612;-76
2021/09/06 09:16:34;;;;;;;44.63;40.20;;;21.30;79.10;;;;;;5068970;28;20514;-78
2021/09/06 09:19:33;;;;;;;44.22;39.88;;;21.30;78.80;;;;;;5025138;28;20044;-76
2021/09/06 09:22:39;;;;;;;43.65;39.15;;;21.40;78.70;;;;;;5067878;28;20033;-77
2021/09/06 09:25:41;;;;;;;42.78;38.17;;;21.40;78.60;;;;;;5053588;28;20020;-78
2021/09/06 09:28:30;;;;;;;41.85;37.35;;;21.50;78.50;;;;;;5040689;28;20044;-77
2021/09/06 09:31:21;;;;;;;42.78;37.28;;;21.60;78.50;;;;;;5041417;28;20036;-75
2021/09/06 09:33:55;;;;;;;41.35;36.90;;;21.70;78.60;;;;;;5068677;28;20052;-78
2021/09/06 09:36:38;;;;;;;41.42;37.35;;;21.70;78.40;;;;;;5050793;28;20062;-75
2021/09/06 09:39:11;;;;;;;41.13;37.05;;;21.80;78.50;;;;;;5048595;28;20183;-76
2021/09/06 09:41:39;;;;;;;41.08;37.05;;;21.90;78.50;;;;;;5063765;28;20051;-75
2021/09/06 09:44:13;;;;;;;41.17;36.92;;;21.90;78.30;;;;;;5063773;28;20028;-77
2021/09/06 09:47:00;;;;;;;38.28;34.15;;;22.00;78.40;;;;;;5066912;28;20436;-75
2021/09/06 09:49:28;;;;;;;39.58;35.58;;;22.00;78.30;;;;;;5067774;28;20587;-78
2021/09/06 09:51:56;;;;;;;39.03;35.20;;;22.10;78.30;;;;;;5065585;28;20189;-76
2021/09/06 09:54:22;;;;;;;40.03;35.75;;;22.10;78.10;;;;;;5069576;28;20063;-77
2021/09/06 09:56:49;;;;;;;35.95;32.33;;;22.20;78.20;;;;;;5063955;28;20036;-77
2021/09/06 09:59:17;;;;;;;37.33;33.53;;;22.20;78.00;;;;;;5065307;28;20082;-74
2021/09/06 10:02:00;;;;;;;38.42;34.55;;;22.30;78.10;;;;;;5076227;28;20555;-74
2021/09/06 10:04:31;;;;;;;37.05;33.35;;;22.40;78.20;;;;;;5045642;28;20097;-75
2021/09/06 10:06:58;;;;;;;37.72;33.75;;;22.40;78.00;;;;;;5011968;28;20031;-76
2021/09/06 10:09:24;;;;;;;35.22;31.65;;;22.50;78.00;;;;;;5061096;28;20074;-76
2021/09/06 10:11:51;;;;;;;34.28;30.88;;;22.50;77.90;;;;;;5066836;28;20033;-75
2021/09/06 10:14:23;;;;;;;36.30;32.75;;;22.60;78.10;;;;;;5045198;28;20033;-76
2021/09/06 10:17:07;;;;;;;35.10;31.63;;;22.70;78.10;;;;;;5034770;28;20040;-75
2021/09/06 10:19:45;;;;;;;35.08;31.05;;;22.80;78.20;;;;;;5066323;28;20036;-77
2021/09/06 10:22:20;;;;;;;34.00;30.58;;;22.90;78.20;;;;;;5066976;28;20043;-77
2021/09/06 10:25:05;;;;;;;32.70;29.30;;;23.00;78.20;;;;;;5086376;28;20040;-76
2021/09/06 10:27:36;;;;;;;33.00;29.67;;;23.10;78.20;;;;;;5083644;28;20174;-77
2021/09/06 10:30:09;;;;;;;32.90;29.60;;;23.30;78.30;;;;;;5064679;28;20102;-77
2021/09/06 10:32:40;;;;;;;33.00;29.63;;;23.40;78.30;;;;;;5065974;28;20138;-76
2021/09/06 10:35:10;;;;;;;32.42;29.38;;;23.50;78.20;;;;;;5065536;28;20055;-77
2021/09/06 10:37:39;;;;;;;31.27;28.08;;;23.70;78.30;;;;;;5055040;28;20025;-77
2021/09/06 10:40:10;;;;;;;30.88;27.88;;;23.80;78.30;;;;;;5066886;28;20032;-77
2021/09/06 10:42:40;;;;;;;30.95;27.52;;;23.90;78.20;;;;;;5063883;28;20077;-77
2021/09/06 10:45:08;;;;;;;32.35;28.77;;;24.00;78.20;;;;;;5064868;28;20150;-77
2021/09/06 10:47:40;;;;;;;29.48;26.42;;;24.10;78.10;;;;;;5053681;28;20055;-78
2021/09/06 10:50:17;;;;;;;29.65;26.63;;;24.20;78.00;;;;;;5067608;28;20028;-74
2021/09/06 10:52:49;;;;;;;30.27;27.30;;;24.30;78.00;;;;;;5077285;28;20051;-76
2021/09/06 10:55:20;;;;;;;27.42;24.65;;;24.40;78.00;;;;;;5063952;28;20365;-77
2021/09/06 10:57:47;;;;;;;29.38;26.42;;;24.50;78.00;;;;;;5064389;28;20028;-77
2021/09/06 11:00:18;;;;;;;28.08;25.33;;;24.50;77.70;;;;;;5047715;28;20070;-75
2021/09/06 11:02:45;;;;;;;26.67;24.10;;;24.60;77.40;;;;;;5066834;28;20072;-78
2021/09/06 11:05:20;;;;;;;26.95;24.23;;;24.60;77.00;;;;;;5069938;28;20028;-75
2021/09/06 11:07:48;;;;;;;26.52;23.92;;;24.70;76.90;;;;;;5070174;28;20364;-75
2021/09/06 11:10:19;;;;;;;26.70;23.75;;;24.70;76.80;;;;;;5056092;28;20025;-77
2021/09/06 11:12:57;;;;;;;28.08;24.85;;;24.80;76.90;;;;;;5066963;28;20032;-76
2021/09/06 11:15:24;;;;;;;28.13;25.08;;;24.90;77.00;;;;;;5049368;28;20100;-75
2021/09/06 11:18:01;;;;;;;26.55;23.65;;;24.90;77.00;;;;;;5057771;28;20495;-76
2021/09/06 11:20:30;;;;;;;27.80;23.60;;;25.00;77.00;;;;;;5062138;28;20033;-75
2021/09/06 11:23:03;;;;;;;30.55;25.08;;;25.10;76.90;;;;;;5051722;28;20530;-76
2021/09/06 11:25:30;;;;;;;35.95;26.98;;;25.20;76.80;;;;;;5064283;28;20032;-76
2021/09/06 11:28:15;;;;;;;32.67;26.10;;;25.30;76.90;;;;;;5068132;28;20107;-77
2021/09/06 11:30:44;;;;;;;31.08;26.88;;;25.30;76.80;;;;;;5051779;28;20090;-76
2021/09/06 11:33:12;;;;;;;32.40;27.42;;;25.30;76.70;;;;;;5071199;28;20020;-76
2021/09/06 11:35:40;;;;;;;30.98;27.83;;;25.40;76.60;;;;;;5065380;28;20021;-75
2021/09/06 11:38:08;;;;;;;36.78;30.20;;;25.40;76.40;;;;;;5062807;28;20119;-76
2021/09/06 11:40:35;;;;;;;35.33;30.35;;;25.40;76.30;;;;;;5064228;28;20043;-75
2021/09/06 11:43:04;;;;;;;33.13;29.60;;;25.40;76.10;;;;;;5071501;28;20032;-75
2021/09/06 11:45:31;;;;;;;44.33;32.17;;;25.40;76.00;;;;;;5066946;28;20035;-75
2021/09/06 11:48:06;;;;;;;40.28;31.70;;;25.40;75.90;;;;;;5049542;28;20079;-76
2021/09/06 11:50:34;;;;;;;33.33;29.63;;;25.40;75.80;;;;;;5083707;28;20379;-76
2021/09/06 11:53:13;;;;;;;31.52;28.20;;;25.40;76.20;;;;;;5075137;28;20050;-78
2021/09/06 11:55:53;;;;;;;34.00;28.98;;;25.40;75.60;;;;;;5053842;28;20040;-74
2021/09/06 11:58:27;;;;;;;38.42;27.30;;;25.40;75.60;;;;;;5058695;28;20540;-74
2021/09/06 12:01:02;;;;;;;30.95;26.63;;;25.40;75.60;;;;;;5069832;28;20509;-74
2021/09/06 12:03:29;;;;;;;37.38;27.55;;;25.40;75.50;;;;;;5070573;28;20464;-73
2021/09/06 12:06:06;;;;;;;30.17;27.02;;;25.40;75.50;;;;;;5046670;28;20123;-75
2021/09/06 12:08:33;;;;;;;29.73;26.52;;;25.50;75.40;;;;;;5064534;28;20435;-75
2021/09/06 12:11:09;;;;;;;33.13;29.42;;;25.40;75.30;;;;;;5048063;28;20037;-75
2021/09/06 12:13:37;;;;;;;32.88;28.23;;;25.40;75.20;;;;;;5070550;28;20036;-77
2021/09/06 12:16:11;;;;;;;31.77;27.30;;;25.40;75.20;;;;;;5070525;28;20104;-77
2021/09/06 12:18:42;;;;;;;33.15;28.73;;;25.40;75.10;;;;;;5089692;28;20070;-78
2021/09/06 12:21:12;;;;;;;34.13;26.88;;;25.40;75.10;;;;;;5095702;28;20028;-78
2021/09/06 12:23:46;;;;;;;32.58;28.15;;;25.40;75.00;;;;;;5084878;28;20033;-77
2021/09/06 12:26:14;;;;;;;30.13;26.88;;;25.40;74.90;;;;;;5076493;28;20032;-76
2021/09/06 12:28:47;;;;;;;31.85;26.13;;;25.40;74.90;;;;;;5061489;28;20516;-78
2021/09/06 12:31:14;;;;;;;30.98;25.95;;;25.40;74.80;;;;;;5078599;28;20082;-77
2021/09/06 12:33:41;;;;;;;30.02;26.27;;;25.40;74.80;;;;;;5079188;28;20357;-76
2021/09/06 12:36:07;;;;;;;30.40;25.17;;;25.50;74.70;;;;;;5076778;28;20036;-76
2021/09/06 12:38:34;;;;;;;28.83;24.90;;;25.50;74.60;;;;;;5075681;28;20048;-77
2021/09/06 12:41:01;;;;;;;28.25;24.90;;;25.50;74.60;;;;;;5075672;28;20141;-76